sensor_id;sensor_type;location;lat;lon;timestamp;pressure;altitude;pressure_sealevel;temperature;humidity
38786;BME280;24535;45.508;12.252;2023-02-26T00:00:29;99692.88;;;12.69;68.92
38786;BME280;24535;45.508;12.252;2023-02-26T00:02:55;99694.97;;;12.66;68.12
38786;BME280;24535;45.508;12.252;2023-02-26T00:05:21;99698.59;;;12.65;68.06
38786;BME280;24535;45.508;12.252;2023-02-26T00:07:46;99693.59;;;12.61;69.31
38786;BME280;24535;45.508;12.252;2023-02-26T00:10:13;99693.72;;;12.60;68.72
38786;BME280;24535;45.508;12.252;2023-02-26T00:12:41;99701.94;;;12.57;68.94
38786;BME280;24535;45.508;12.252;2023-02-26T00:15:07;99696.09;;;12.53;69.25
38786;BME280;24535;45.508;12.252;2023-02-26T00:20:13;99689.44;;;12.49;68.78
38786;BME280;24535;45.508;12.252;2023-02-26T00:22:42;99699.44;;;12.46;69.34
38786;BME280;24535;45.508;12.252;2023-02-26T00:25:09;99700.84;;;12.40;69.70
38786;BME280;24535;45.508;12.252;2023-02-26T00:27:35;99707.78;;;12.41;69.04
38786;BME280;24535;45.508;12.252;2023-02-26T00:30:05;99710.69;;;12.38;69.82
38786;BME280;24535;45.508;12.252;2023-02-26T00:32:34;99728.50;;;12.36;69.99
38786;BME280;24535;45.508;12.252;2023-02-26T00:35:00;99743.50;;;12.26;69.79
38786;BME280;24535;45.508;12.252;2023-02-26T00:40:47;99757.91;;;12.02;68.76
38786;BME280;24535;45.508;12.252;2023-02-26T00:45:44;99767.00;;;11.79;67.53
38786;BME280;24535;45.508;12.252;2023-02-26T00:48:29;99768.78;;;11.69;66.90
38786;BME280;24535;45.508;12.252;2023-02-26T00:51:21;99794.56;;;11.55;66.42
38786;BME280;24535;45.508;12.252;2023-02-26T00:53:57;99795.31;;;11.46;66.66
38786;BME280;24535;45.508;12.252;2023-02-26T00:56:31;99799.72;;;11.36;66.51
38786;BME280;24535;45.508;12.252;2023-02-26T00:58:57;99807.31;;;11.29;66.63
38786;BME280;24535;45.508;12.252;2023-02-26T01:01:22;99809.50;;;11.24;65.96
38786;BME280;24535;45.508;12.252;2023-02-26T01:03:48;99812.94;;;11.15;65.33
38786;BME280;24535;45.508;12.252;2023-02-26T01:06:16;99814.75;;;11.14;65.36
38786;BME280;24535;45.508;12.252;2023-02-26T01:11:25;99845.69;;;11.01;64.49
38786;BME280;24535;45.508;12.252;2023-02-26T01:13:51;99844.28;;;10.97;64.64
38786;BME280;24535;45.508;12.252;2023-02-26T01:16:21;99854.91;;;10.86;64.28
38786;BME280;24535;45.508;12.252;2023-02-26T01:19:00;99865.09;;;10.79;63.84
38786;BME280;24535;45.508;12.252;2023-02-26T01:21:36;99866.53;;;10.72;63.51
38786;BME280;24535;45.508;12.252;2023-02-26T01:24:07;99873.41;;;10.63;63.27
38786;BME280;24535;45.508;12.252;2023-02-26T01:26:35;99872.34;;;10.55;63.72
38786;BME280;24535;45.508;12.252;2023-02-26T01:29:00;99871.78;;;10.40;63.46
38786;BME280;24535;45.508;12.252;2023-02-26T01:34:15;99894.28;;;10.22;63.67
38786;BME280;24535;45.508;12.252;2023-02-26T01:39:57;99879.22;;;10.01;63.72
38786;BME280;24535;45.508;12.252;2023-02-26T01:42:29;99885.44;;;9.89;63.61
38786;BME280;24535;45.508;12.252;2023-02-26T01:44:59;99891.41;;;9.80;63.54
38786;BME280;24535;45.508;12.252;2023-02-26T01:47:47;99894.75;;;9.71;63.46
38786;BME280;24535;45.508;12.252;2023-02-26T01:50:18;99880.66;;;9.60;63.95
38786;BME280;24535;45.508;12.252;2023-02-26T01:55:20;99881.09;;;9.54;63.48
38786;BME280;24535;45.508;12.252;2023-02-26T01:57:51;99898.81;;;9.52;63.67
38786;BME280;24535;45.508;12.252;2023-02-26T02:00:28;99883.03;;;9.52;63.46
38786;BME280;24535;45.508;12.252;2023-02-26T02:03:03;99873.44;;;9.51;63.80
38786;BME280;24535;45.508;12.252;2023-02-26T02:05:48;99856.75;;;9.52;63.44
38786;BME280;24535;45.508;12.252;2023-02-26T02:08:16;99874.41;;;9.50;63.80
38786;BME280;24535;45.508;12.252;2023-02-26T02:10:45;99881.59;;;9.48;63.35
38786;BME280;24535;45.508;12.252;2023-02-26T02:19:05;99878.56;;;9.41;62.64
38786;BME280;24535;45.508;12.252;2023-02-26T02:30:49;99885.16;;;9.47;61.69
38786;BME280;24535;45.508;12.252;2023-02-26T02:33:21;99899.13;;;9.48;61.11
38786;BME280;24535;45.508;12.252;2023-02-26T02:36:00;99903.44;;;9.49;61.07
38786;BME280;24535;45.508;12.252;2023-02-26T02:38:48;99918.38;;;9.48;60.46
38786;BME280;24535;45.508;12.252;2023-02-26T02:41:23;99926.03;;;9.51;60.57
38786;BME280;24535;45.508;12.252;2023-02-26T02:43:51;99946.47;;;9.59;60.68
38786;BME280;24535;45.508;12.252;2023-02-26T02:46:30;99945.50;;;9.60;60.22
38786;BME280;24535;45.508;12.252;2023-02-26T02:52:56;99945.28;;;9.63;59.80
38786;BME280;24535;45.508;12.252;2023-02-26T02:55:00;99934.69;;;9.64;59.65
38786;BME280;24535;45.508;12.252;2023-02-26T02:57:42;99946.25;;;9.62;59.37
38786;BME280;24535;45.508;12.252;2023-02-26T03:00:29;99951.28;;;9.65;59.17
38786;BME280;24535;45.508;12.252;2023-02-26T03:03:14;99949.84;;;9.61;58.97
38786;BME280;24535;45.508;12.252;2023-02-26T03:05:46;99946.59;;;9.57;58.91
38786;BME280;24535;45.508;12.252;2023-02-26T03:08:41;99930.59;;;9.60;58.82
38786;BME280;24535;45.508;12.252;2023-02-26T03:11:10;99927.84;;;9.62;58.90
38786;BME280;24535;45.508;12.252;2023-02-26T03:13:36;99918.28;;;9.61;58.53
38786;BME280;24535;45.508;12.252;2023-02-26T03:22:02;99950.78;;;9.49;58.31
38786;BME280;24535;45.508;12.252;2023-02-26T03:24:54;99965.94;;;9.45;58.28
38786;BME280;24535;45.508;12.252;2023-02-26T03:32:51;99956.63;;;9.52;57.08
38786;BME280;24535;45.508;12.252;2023-02-26T03:41:16;99988.53;;;9.59;56.11
38786;BME280;24535;45.508;12.252;2023-02-26T03:47:24;99985.69;;;9.62;55.80
38786;BME280;24535;45.508;12.252;2023-02-26T03:50:14;99969.44;;;9.57;55.30
38786;BME280;24535;45.508;12.252;2023-02-26T03:52:48;99964.28;;;9.55;55.54
38786;BME280;24535;45.508;12.252;2023-02-26T03:55:30;99976.50;;;9.56;55.48
38786;BME280;24535;45.508;12.252;2023-02-26T04:01:00;99990.22;;;9.60;55.41
38786;BME280;24535;45.508;12.252;2023-02-26T04:03:32;99997.19;;;9.61;55.53
38786;BME280;24535;45.508;12.252;2023-02-26T04:09:24;99971.09;;;9.58;55.12
38786;BME280;24535;45.508;12.252;2023-02-26T04:11:53;99971.31;;;9.55;55.90
38786;BME280;24535;45.508;12.252;2023-02-26T04:14:20;99982.06;;;9.52;56.40
38786;BME280;24535;45.508;12.252;2023-02-26T04:16:58;99981.22;;;9.51;55.85
38786;BME280;24535;45.508;12.252;2023-02-26T04:19:29;99980.78;;;9.57;56.26
38786;BME280;24535;45.508;12.252;2023-02-26T04:21:55;99988.78;;;9.56;56.50
38786;BME280;24535;45.508;12.252;2023-02-26T04:24:21;99985.31;;;9.55;56.20
38786;BME280;24535;45.508;12.252;2023-02-26T04:26:46;99987.84;;;9.57;55.90
38786;BME280;24535;45.508;12.252;2023-02-26T04:29:12;100003.50;;;9.58;56.14
38786;BME280;24535;45.508;12.252;2023-02-26T04:31:37;100000.03;;;9.58;56.22
38786;BME280;24535;45.508;12.252;2023-02-26T04:34:03;99995.81;;;9.55;55.64
38786;BME280;24535;45.508;12.252;2023-02-26T04:36:29;99994.63;;;9.59;56.07
38786;BME280;24535;45.508;12.252;2023-02-26T04:39:00;99995.81;;;9.55;55.66
38786;BME280;24535;45.508;12.252;2023-02-26T04:41:29;100004.44;;;9.57;55.48
38786;BME280;24535;45.508;12.252;2023-02-26T04:44:01;100011.38;;;9.58;55.03
38786;BME280;24535;45.508;12.252;2023-02-26T04:46:28;100020.09;;;9.59;55.48
38786;BME280;24535;45.508;12.252;2023-02-26T04:49:05;100027.03;;;9.60;55.08
38786;BME280;24535;45.508;12.252;2023-02-26T04:51:31;100005.50;;;9.55;54.76
38786;BME280;24535;45.508;12.252;2023-02-26T04:53:56;99998.78;;;9.51;54.90
38786;BME280;24535;45.508;12.252;2023-02-26T04:56:28;100003.84;;;9.54;54.33
38786;BME280;24535;45.508;12.252;2023-02-26T04:58:53;100009.94;;;9.54;54.08
38786;BME280;24535;45.508;12.252;2023-02-26T05:01:18;100008.47;;;9.50;53.93
38786;BME280;24535;45.508;12.252;2023-02-26T05:03:44;100006.59;;;9.52;54.11
38786;BME280;24535;45.508;12.252;2023-02-26T05:06:09;100001.22;;;9.54;54.10
38786;BME280;24535;45.508;12.252;2023-02-26T05:11:26;100010.53;;;9.58;53.96
38786;BME280;24535;45.508;12.252;2023-02-26T05:13:52;100006.25;;;9.57;53.89
38786;BME280;24535;45.508;12.252;2023-02-26T05:16:17;100006.00;;;9.60;53.78
38786;BME280;24535;45.508;12.252;2023-02-26T05:18:43;100007.69;;;9.61;53.51
38786;BME280;24535;45.508;12.252;2023-02-26T05:21:08;100021.66;;;9.61;52.99
38786;BME280;24535;45.508;12.252;2023-02-26T05:23:36;100013.88;;;9.60;52.92
38786;BME280;24535;45.508;12.252;2023-02-26T05:26:10;100025.00;;;9.63;51.85
38786;BME280;24535;45.508;12.252;2023-02-26T05:28:36;100032.06;;;9.63;52.17
38786;BME280;24535;45.508;12.252;2023-02-26T05:31:02;100073.69;;;9.69;52.35
38786;BME280;24535;45.508;12.252;2023-02-26T05:33:36;100064.84;;;9.70;51.96
38786;BME280;24535;45.508;12.252;2023-02-26T05:36:11;100074.06;;;9.76;51.70
38786;BME280;24535;45.508;12.252;2023-02-26T05:38:40;100075.84;;;9.75;51.72
38786;BME280;24535;45.508;12.252;2023-02-26T05:41:05;100074.81;;;9.78;51.90
38786;BME280;24535;45.508;12.252;2023-02-26T05:43:31;100067.88;;;9.77;51.57
38786;BME280;24535;45.508;12.252;2023-02-26T05:46:03;100079.09;;;9.79;51.61
38786;BME280;24535;45.508;12.252;2023-02-26T05:48:40;100095.28;;;9.85;51.74
38786;BME280;24535;45.508;12.252;2023-02-26T05:51:09;100106.44;;;9.89;51.07
38786;BME280;24535;45.508;12.252;2023-02-26T05:53:34;100087.50;;;9.84;50.93
38786;BME280;24535;45.508;12.252;2023-02-26T05:56:03;100092.16;;;9.80;50.35
38786;BME280;24535;45.508;12.252;2023-02-26T05:58:30;100077.84;;;9.84;50.63
38786;BME280;24535;45.508;12.252;2023-02-26T06:01:03;100070.16;;;9.81;50.29
38786;BME280;24535;45.508;12.252;2023-02-26T06:03:35;100089.19;;;9.85;50.00
38786;BME280;24535;45.508;12.252;2023-02-26T06:06:01;100092.75;;;9.84;50.08
38786;BME280;24535;45.508;12.252;2023-02-26T06:08:26;100104.13;;;9.84;50.03
38786;BME280;24535;45.508;12.252;2023-02-26T06:10:55;100101.59;;;9.83;49.69
38786;BME280;24535;45.508;12.252;2023-02-26T06:13:27;100095.63;;;9.81;48.76
38786;BME280;24535;45.508;12.252;2023-02-26T06:15:52;100078.28;;;9.78;49.38
38786;BME280;24535;45.508;12.252;2023-02-26T06:18:21;100080.91;;;9.78;48.90
38786;BME280;24535;45.508;12.252;2023-02-26T06:20:46;100099.44;;;9.77;48.56
38786;BME280;24535;45.508;12.252;2023-02-26T06:23:12;100114.69;;;9.72;48.97
38786;BME280;24535;45.508;12.252;2023-02-26T06:25:40;100125.22;;;9.72;48.82
38786;BME280;24535;45.508;12.252;2023-02-26T06:28:05;100117.31;;;9.72;49.00
38786;BME280;24535;45.508;12.252;2023-02-26T06:30:34;100133.22;;;9.70;48.65
38786;BME280;24535;45.508;12.252;2023-02-26T06:33:08;100122.38;;;9.75;48.70
38786;BME280;24535;45.508;12.252;2023-02-26T06:35:42;100123.53;;;9.71;48.55
38786;BME280;24535;45.508;12.252;2023-02-26T06:38:14;100140.06;;;9.73;47.88
38786;BME280;24535;45.508;12.252;2023-02-26T06:40:43;100135.13;;;9.68;47.75
38786;BME280;24535;45.508;12.252;2023-02-26T06:43:12;100169.22;;;9.70;48.35
38786;BME280;24535;45.508;12.252;2023-02-26T06:45:40;100183.91;;;9.72;47.99
38786;BME280;24535;45.508;12.252;2023-02-26T06:48:06;100167.22;;;9.73;48.65
38786;BME280;24535;45.508;12.252;2023-02-26T06:50:49;100187.63;;;9.70;47.44
38786;BME280;24535;45.508;12.252;2023-02-26T06:53:14;100192.97;;;9.68;48.15
38786;BME280;24535;45.508;12.252;2023-02-26T06:55:51;100182.25;;;9.71;48.09
38786;BME280;24535;45.508;12.252;2023-02-26T06:58:25;100183.91;;;9.72;47.60
38786;BME280;24535;45.508;12.252;2023-02-26T07:00:51;100180.44;;;9.72;47.78
38786;BME280;24535;45.508;12.252;2023-02-26T07:03:17;100193.50;;;9.73;48.03
38786;BME280;24535;45.508;12.252;2023-02-26T07:05:45;100189.28;;;9.71;47.96
38786;BME280;24535;45.508;12.252;2023-02-26T07:08:12;100186.78;;;9.69;47.51
38786;BME280;24535;45.508;12.252;2023-02-26T07:10:38;100196.13;;;9.73;47.56
38786;BME280;24535;45.508;12.252;2023-02-26T07:13:10;100202.66;;;9.68;47.96
38786;BME280;24535;45.508;12.252;2023-02-26T07:15:42;100210.34;;;9.71;47.92
38786;BME280;24535;45.508;12.252;2023-02-26T07:18:30;100210.22;;;9.72;47.08
38786;BME280;24535;45.508;12.252;2023-02-26T07:20:56;100209.38;;;9.72;47.83
38786;BME280;24535;45.508;12.252;2023-02-26T07:23:21;100210.84;;;9.76;48.04
38786;BME280;24535;45.508;12.252;2023-02-26T07:25:48;100208.94;;;9.78;47.95
38786;BME280;24535;45.508;12.252;2023-02-26T07:28:14;100194.97;;;9.77;47.96
38786;BME280;24535;45.508;12.252;2023-02-26T07:30:42;100200.09;;;9.79;48.04
38786;BME280;24535;45.508;12.252;2023-02-26T07:33:08;100204.53;;;9.78;47.76
38786;BME280;24535;45.508;12.252;2023-02-26T07:35:33;100208.94;;;9.78;47.79
38786;BME280;24535;45.508;12.252;2023-02-26T07:37:59;100207.16;;;9.78;47.20
38786;BME280;24535;45.508;12.252;2023-02-26T07:40:24;100222.81;;;9.80;47.51
38786;BME280;24535;45.508;12.252;2023-02-26T07:42:56;100224.28;;;9.84;47.32
38786;BME280;24535;45.508;12.252;2023-02-26T07:45:21;100220.09;;;9.81;47.45
38786;BME280;24535;45.508;12.252;2023-02-26T07:47:51;100221.66;;;9.84;47.47
38786;BME280;24535;45.508;12.252;2023-02-26T07:50:18;100226.69;;;9.87;47.90
38786;BME280;24535;45.508;12.252;2023-02-26T07:52:46;100210.19;;;9.85;47.44
38786;BME280;24535;45.508;12.252;2023-02-26T07:55:15;100201.34;;;9.86;47.11
38786;BME280;24535;45.508;12.252;2023-02-26T07:57:40;100206.59;;;9.86;47.20
38786;BME280;24535;45.508;12.252;2023-02-26T08:04:11;100215.00;;;9.91;46.72
38786;BME280;24535;45.508;12.252;2023-02-26T08:06:37;100217.75;;;9.89;46.73
38786;BME280;24535;45.508;12.252;2023-02-26T08:09:03;100206.59;;;9.86;46.68
38786;BME280;24535;45.508;12.252;2023-02-26T08:11:35;100198.72;;;9.86;47.32
38786;BME280;24535;45.508;12.252;2023-02-26T08:14:06;100203.00;;;9.87;47.34
38786;BME280;24535;45.508;12.252;2023-02-26T08:16:35;100209.25;;;9.86;46.93
38786;BME280;24535;45.508;12.252;2023-02-26T08:19:00;100218.59;;;9.90;47.34
38786;BME280;24535;45.508;12.252;2023-02-26T08:21:26;100225.66;;;9.89;46.98
38786;BME280;24535;45.508;12.252;2023-02-26T08:23:52;100234.25;;;9.91;47.29
38786;BME280;24535;45.508;12.252;2023-02-26T08:26:18;100229.81;;;9.92;47.17
38786;BME280;24535;45.508;12.252;2023-02-26T08:28:43;100248.66;;;9.99;47.16
38786;BME280;24535;45.508;12.252;2023-02-26T08:31:10;100242.97;;;9.92;46.84
38786;BME280;24535;45.508;12.252;2023-02-26T08:33:43;100247.31;;;9.93;46.35
38786;BME280;24535;45.508;12.252;2023-02-26T08:36:09;100258.75;;;9.92;46.98
38786;BME280;24535;45.508;12.252;2023-02-26T08:38:34;100262.03;;;9.96;46.75
38786;BME280;24535;45.508;12.252;2023-02-26T08:41:00;100262.25;;;9.93;46.44
38786;BME280;24535;45.508;12.252;2023-02-26T08:43:25;100256.03;;;9.94;46.85
38786;BME280;24535;45.508;12.252;2023-02-26T08:45:53;100251.84;;;9.91;46.63
38786;BME280;24535;45.508;12.252;2023-02-26T08:48:19;100271.00;;;9.93;46.46
38786;BME280;24535;45.508;12.252;2023-02-26T08:50:45;100258.88;;;9.90;46.32
38786;BME280;24535;45.508;12.252;2023-02-26T08:53:10;100258.06;;;9.90;46.19
38786;BME280;24535;45.508;12.252;2023-02-26T08:55:36;100258.66;;;9.94;46.06
38786;BME280;24535;45.508;12.252;2023-02-26T08:58:08;100268.75;;;10.00;45.74
38786;BME280;24535;45.508;12.252;2023-02-26T09:00:34;100270.44;;;10.01;45.62
38786;BME280;24535;45.508;12.252;2023-02-26T09:02:59;100273.56;;;10.06;45.83
38786;BME280;24535;45.508;12.252;2023-02-26T09:05:28;100278.94;;;10.04;45.41
38786;BME280;24535;45.508;12.252;2023-02-26T09:08:09;100276.41;;;10.03;45.14
38786;BME280;24535;45.508;12.252;2023-02-26T09:10:36;100282.19;;;10.08;45.56
38786;BME280;24535;45.508;12.252;2023-02-26T09:13:08;100280.50;;;10.07;45.15
38786;BME280;24535;45.508;12.252;2023-02-26T09:15:34;100279.69;;;10.06;45.68
38786;BME280;24535;45.508;12.252;2023-02-26T09:21:06;100302.41;;;10.07;45.82
38786;BME280;24535;45.508;12.252;2023-02-26T09:23:31;100309.25;;;10.10;45.56
38786;BME280;24535;45.508;12.252;2023-02-26T09:26:21;100317.22;;;10.08;44.82
38786;BME280;24535;45.508;12.252;2023-02-26T09:28:47;100327.66;;;10.10;45.30
38786;BME280;24535;45.508;12.252;2023-02-26T09:31:12;100328.28;;;10.13;45.50
38786;BME280;24535;45.508;12.252;2023-02-26T09:33:58;100340.28;;;10.18;45.59
38786;BME280;24535;45.508;12.252;2023-02-26T09:36:24;100346.88;;;10.23;45.21
38786;BME280;24535;45.508;12.252;2023-02-26T09:38:52;100332.16;;;10.21;45.28
38786;BME280;24535;45.508;12.252;2023-02-26T09:41:37;100341.00;;;10.20;44.55
38786;BME280;24535;45.508;12.252;2023-02-26T09:44:12;100343.63;;;10.20;44.76
38786;BME280;24535;45.508;12.252;2023-02-26T09:55:47;100368.16;;;10.20;43.69
38786;BME280;24535;45.508;12.252;2023-02-26T09:58:20;100357.13;;;10.28;44.02
38786;BME280;24535;45.508;12.252;2023-02-26T10:11:34;100358.88;;;10.40;42.51
38786;BME280;24535;45.508;12.252;2023-02-26T10:14:27;100361.72;;;10.37;42.44
38786;BME280;24535;45.508;12.252;2023-02-26T10:19:42;100367.72;;;10.39;42.96
38786;BME280;24535;45.508;12.252;2023-02-26T10:22:24;100369.41;;;10.40;42.18
38786;BME280;24535;45.508;12.252;2023-02-26T10:25:04;100364.97;;;10.40;41.64
38786;BME280;24535;45.508;12.252;2023-02-26T10:30:38;100375.75;;;10.37;42.12
38786;BME280;24535;45.508;12.252;2023-02-26T10:39:42;100381.59;;;10.41;43.24
38786;BME280;24535;45.508;12.252;2023-02-26T10:42:11;100381.84;;;10.38;43.34
38786;BME280;24535;45.508;12.252;2023-02-26T10:50:19;100380.88;;;10.39;43.19
38786;BME280;24535;45.508;12.252;2023-02-26T10:52:45;100388.91;;;10.37;43.49
38786;BME280;24535;45.508;12.252;2023-02-26T10:58:10;100388.66;;;10.40;42.81
38786;BME280;24535;45.508;12.252;2023-02-26T11:00:38;100388.56;;;10.42;43.17
38786;BME280;24535;45.508;12.252;2023-02-26T11:03:05;100391.53;;;10.37;43.23
38786;BME280;24535;45.508;12.252;2023-02-26T11:05:32;100396.47;;;10.42;42.99
38786;BME280;24535;45.508;12.252;2023-02-26T11:08:25;100381.59;;;10.41;42.49
38786;BME280;24535;45.508;12.252;2023-02-26T11:10:54;100392.75;;;10.45;42.96
38786;BME280;24535;45.508;12.252;2023-02-26T11:13:25;100384.78;;;10.46;42.99
38786;BME280;24535;45.508;12.252;2023-02-26T11:15:52;100382.34;;;10.43;42.49
38786;BME280;24535;45.508;12.252;2023-02-26T11:18:38;100393.63;;;10.45;42.41
38786;BME280;24535;45.508;12.252;2023-02-26T11:21:05;100396.75;;;10.50;42.89
38786;BME280;24535;45.508;12.252;2023-02-26T11:23:33;100391.50;;;10.50;43.06
38786;BME280;24535;45.508;12.252;2023-02-26T11:26:05;100399.19;;;10.53;42.70
38786;BME280;24535;45.508;12.252;2023-02-26T11:28:41;100405.38;;;10.52;42.66
38786;BME280;24535;45.508;12.252;2023-02-26T11:31:09;100398.31;;;10.53;42.72
38786;BME280;24535;45.508;12.252;2023-02-26T11:33:38;100393.16;;;10.51;42.47
38786;BME280;24535;45.508;12.252;2023-02-26T11:36:17;100398.44;;;10.51;42.89
38786;BME280;24535;45.508;12.252;2023-02-26T11:38:59;100400.72;;;10.56;42.74
38786;BME280;24535;45.508;12.252;2023-02-26T11:41:28;100415.00;;;10.53;42.47
38786;BME280;24535;45.508;12.252;2023-02-26T11:44:09;100400.09;;;10.52;42.40
38786;BME280;24535;45.508;12.252;2023-02-26T11:46:45;100391.50;;;10.50;42.52
38786;BME280;24535;45.508;12.252;2023-02-26T11:49:16;100392.22;;;10.52;42.86
38786;BME280;24535;45.508;12.252;2023-02-26T11:52:05;100399.06;;;10.55;42.52
38786;BME280;24535;45.508;12.252;2023-02-26T11:54:44;100398.22;;;10.54;42.59
38786;BME280;24535;45.508;12.252;2023-02-26T11:57:25;100396.56;;;10.53;41.67
38786;BME280;24535;45.508;12.252;2023-02-26T11:59:52;100390.19;;;10.56;42.54
38786;BME280;24535;45.508;12.252;2023-02-26T12:02:21;100396.94;;;10.60;42.37
38786;BME280;24535;45.508;12.252;2023-02-26T12:04:50;100396.22;;;10.58;42.30
38786;BME280;24535;45.508;12.252;2023-02-26T12:07:18;100397.75;;;10.60;42.35
38786;BME280;24535;45.508;12.252;2023-02-26T12:09:44;100387.47;;;10.57;42.17
38786;BME280;24535;45.508;12.252;2023-02-26T12:12:35;100407.13;;;10.64;42.17
38786;BME280;24535;45.508;12.252;2023-02-26T12:17:58;100394.34;;;10.71;42.21
38786;BME280;24535;45.508;12.252;2023-02-26T12:20:41;100404.91;;;10.71;41.65
38786;BME280;24535;45.508;12.252;2023-02-26T12:28:49;100400.94;;;10.66;41.56
38786;BME280;24535;45.508;12.252;2023-02-26T12:34:28;100418.13;;;10.58;41.11
38786;BME280;24535;45.508;12.252;2023-02-26T12:37:09;100408.75;;;10.54;40.97
38786;BME280;24535;45.508;12.252;2023-02-26T12:39:56;100412.34;;;10.53;41.30
38786;BME280;24535;45.508;12.252;2023-02-26T12:56:29;100433.50;;;10.52;42.21
38786;BME280;24535;45.508;12.252;2023-02-26T13:07:39;100429.44;;;10.35;42.34
38786;BME280;24535;45.508;12.252;2023-02-26T13:15:51;100435.13;;;10.29;42.79
38786;BME280;24535;45.508;12.252;2023-02-26T13:21:23;100438.31;;;10.21;42.85
38786;BME280;24535;45.508;12.252;2023-02-26T13:23:55;100443.66;;;10.20;42.90
38786;BME280;24535;45.508;12.252;2023-02-26T13:26:28;100439.56;;;10.15;43.13
38786;BME280;24535;45.508;12.252;2023-02-26T13:29:22;100440.31;;;10.18;43.04
38786;BME280;24535;45.508;12.252;2023-02-26T13:32:27;100456.09;;;10.18;42.56
38786;BME280;24535;45.508;12.252;2023-02-26T13:35:00;100453.47;;;10.18;43.11
38786;BME280;24535;45.508;12.252;2023-02-26T13:37:41;100461.78;;;10.11;42.62
38786;BME280;24535;45.508;12.252;2023-02-26T13:46:07;100466.00;;;10.14;42.67
38786;BME280;24535;45.508;12.252;2023-02-26T13:51:37;100484.09;;;10.06;42.83
38786;BME280;24535;45.508;12.252;2023-02-26T14:01:52;100489.25;;;10.07;42.89
38786;BME280;24535;45.508;12.252;2023-02-26T14:04:24;100501.25;;;10.11;42.89
38786;BME280;24535;45.508;12.252;2023-02-26T14:07:44;100506.72;;;10.08;42.76
38786;BME280;24535;45.508;12.252;2023-02-26T14:10:25;100509.66;;;10.04;42.77
38786;BME280;24535;45.508;12.252;2023-02-26T14:13:16;100505.47;;;10.01;42.71
38786;BME280;24535;45.508;12.252;2023-02-26T14:18:39;100515.56;;;9.95;43.01
38786;BME280;24535;45.508;12.252;2023-02-26T14:24:17;100527.25;;;9.90;42.79
38786;BME280;24535;45.508;12.252;2023-02-26T14:26:47;100527.56;;;9.86;43.17
38786;BME280;24535;45.508;12.252;2023-02-26T14:29:19;100527.56;;;9.86;42.88
38786;BME280;24535;45.508;12.252;2023-02-26T14:34:29;100521.53;;;9.84;42.71
38786;BME280;24535;45.508;12.252;2023-02-26T14:37:03;100524.28;;;9.82;42.59
38786;BME280;24535;45.508;12.252;2023-02-26T14:39:53;100529.03;;;9.77;42.58
38786;BME280;24535;45.508;12.252;2023-02-26T14:42:41;100526.69;;;9.73;42.57
38786;BME280;24535;45.508;12.252;2023-02-26T14:45:30;100533.00;;;9.70;42.47
38786;BME280;24535;45.508;12.252;2023-02-26T14:48:00;100546.16;;;9.70;43.24
38786;BME280;24535;45.508;12.252;2023-02-26T15:19:53;100607.81;;;9.52;43.77
38786;BME280;24535;45.508;12.252;2023-02-26T15:25:38;100613.31;;;9.49;44.11
38786;BME280;24535;45.508;12.252;2023-02-26T15:28:21;100613.97;;;9.52;43.84
38786;BME280;24535;45.508;12.252;2023-02-26T15:30:52;100613.00;;;9.53;44.25
38786;BME280;24535;45.508;12.252;2023-02-26T15:33:19;100609.44;;;9.54;43.92
38786;BME280;24535;45.508;12.252;2023-02-26T15:35:48;100620.78;;;9.55;44.27
38786;BME280;24535;45.508;12.252;2023-02-26T15:38:14;100621.84;;;9.52;43.60
38786;BME280;24535;45.508;12.252;2023-02-26T15:40:39;100624.66;;;9.49;43.60
38786;BME280;24535;45.508;12.252;2023-02-26T15:43:09;100627.28;;;9.49;44.01
38786;BME280;24535;45.508;12.252;2023-02-26T15:45:45;100632.63;;;9.48;43.67
38786;BME280;24535;45.508;12.252;2023-02-26T15:51:03;100637.28;;;9.44;44.11
38786;BME280;24535;45.508;12.252;2023-02-26T15:56:05;100636.41;;;9.44;43.58
38786;BME280;24535;45.508;12.252;2023-02-26T15:58:42;100641.75;;;9.42;43.51
38786;BME280;24535;45.508;12.252;2023-02-26T16:01:20;100652.19;;;9.44;43.62
38786;BME280;24535;45.508;12.252;2023-02-26T16:03:53;100659.31;;;9.41;43.46
38786;BME280;24535;45.508;12.252;2023-02-26T16:06:38;100662.78;;;9.42;43.67
38786;BME280;24535;45.508;12.252;2023-02-26T16:09:06;100675.28;;;9.38;43.51
38786;BME280;24535;45.508;12.252;2023-02-26T16:11:36;100681.59;;;9.36;43.67
38786;BME280;24535;45.508;12.252;2023-02-26T16:14:04;100685.38;;;9.32;43.55
38786;BME280;24535;45.508;12.252;2023-02-26T16:16:42;100684.31;;;9.34;43.58
38786;BME280;24535;45.508;12.252;2023-02-26T16:19:17;100692.38;;;9.31;43.38
38786;BME280;24535;45.508;12.252;2023-02-26T16:21:58;100689.75;;;9.31;43.70
38786;BME280;24535;45.508;12.252;2023-02-26T16:24:34;100711.00;;;9.28;43.28
38786;BME280;24535;45.508;12.252;2023-02-26T16:27:03;100713.03;;;9.23;43.50
38786;BME280;24535;45.508;12.252;2023-02-26T16:29:32;100712.19;;;9.23;43.25
38786;BME280;24535;45.508;12.252;2023-02-26T16:32:08;100726.28;;;9.22;43.24
38786;BME280;24535;45.508;12.252;2023-02-26T16:34:42;100736.13;;;9.18;43.43
38786;BME280;24535;45.508;12.252;2023-02-26T16:39:43;100743.28;;;9.16;43.50
38786;BME280;24535;45.508;12.252;2023-02-26T16:51:16;100768.72;;;9.15;42.55
38786;BME280;24535;45.508;12.252;2023-02-26T16:53:47;100777.69;;;9.11;42.79
38786;BME280;24535;45.508;12.252;2023-02-26T16:56:29;100780.44;;;9.10;42.77
38786;BME280;24535;45.508;12.252;2023-02-26T16:59:16;100791.88;;;9.09;42.28
38786;BME280;24535;45.508;12.252;2023-02-26T17:02:31;100799.94;;;9.06;42.27
38786;BME280;24535;45.508;12.252;2023-02-26T17:04:40;100809.78;;;9.02;42.81